Sarah Desgagnes — XJAB — position and weather

sailwx.info

Track history (hours):
 
Tides and Currents Weather Stations Pressure Air Temp Water Temp Dewpoint Dewpoint Depression Visibility Wind Speed Wind Dir Waves Ship Positions

Sarah Desgagnes

Last reported at 2015-Jul-05 16:33 UTC. Time now 2015-Jul-08 02:18 UTC.
Position N 42°19' W 080°41'.

Length 148 m; draft 7.9 m.

Type: Tanker. MMSI: 316012308.

Date/timePositionNaut miles runAvg speedWind from/ knotsBaromVisibWave heightAir tempDewpointWater temp
2015-Jul-05 16:33N 42°19' W 080°41'3514.1
2015-Jul-05 14:04N 42°33' W 079°57'714.3
2015-Jul-05 13:34N 42°36' W 079°49'1414.2
2015-Jul-05 12:34N 42°43' W 079°32'155 7.1
2015-Jul-04 14:33N 44°02' W 076°28'1313.2
2015-Jul-04 13:33N 44°12' W 076°16'108 7.7
2015-Jul-03 23:32N 45°14' W 074°11'8 8.3
2015-Jul-03 22:33N 45°14' W 073°59'5 4.3
2015-Jul-03 21:29N 45°18' W 073°56'1 1.1
2015-Jul-03 20:06N 45°20' W 073°55'4 7.1
2015-Jul-03 19:33N 45°22' W 073°50'8 7.7
2015-Jul-03 18:33N 45°25' W 073°40'43 5.3
2015-Jul-03 10:33N 46°02' W 073°10'10 9.5
2015-Jul-03 09:33N 46°07' W 072°58'1111.2
2015-Jul-03 08:33N 46°14' W 072°46'1010.1
2015-Jul-03 07:33N 46°19' W 072°33'1110.6
2015-Jul-03 06:33N 46°26' W 072°21'1110.5
2015-Jul-03 05:33N 46°33' W 072°10'10 9.8
2015-Jul-03 04:30N 46°38' W 071°56'  
2015-Jun-29 22:29N 45°31' W 073°31'5 2.0
2015-Jun-29 20:06N 45°26' W 073°30'4 0.3
2015-Jun-29 04:06N 45°24' W 073°35'0 0.7
2015-Jun-29 03:33N 45°24' W 073°36'8 7.5
2015-Jun-29 02:33N 45°24' W 073°47'7 7.0
2015-Jun-29 01:33N 45°24' W 073°37'3 2.7
2015-Jun-29 00:34N 45°24' W 073°33'47 1.4
2015-Jun-27 15:24N 46°06' W 072°59'910.4
2015-Jun-27 14:33N 46°12' W 072°51'1111.1
2015-Jun-27 13:33N 46°17' W 072°37'9 8.7
2015-Jun-27 12:33N 46°23' W 072°27'1010.1
2015-Jun-27 11:33N 46°28' W 072°15'1010.0
2015-Jun-27 10:33N 46°34' W 072°03'1111.1
2015-Jun-27 09:32N 46°40' W 071°49'  
Track history (hours):
 
Tides and Currents Weather Stations Pressure Air Temp Water Temp Dewpoint Dewpoint Depression Visibility Wind Speed Wind Dir Waves Ship Positions

Sarah Desgagnes

Last reported at 2015-Jul-05 16:33 UTC. Time now 2015-Jul-08 02:18 UTC.
Position N 42°19' W 080°41'.

Length 148 m; draft 7.9 m.

Type: Tanker. MMSI: 316012308.

Date/timePositionNaut miles runAvg speedWind from/ knotsBaromVisibWave heightAir tempDewpointWater temp
2015-Jul-05 16:33N 42°19' W 080°41'3514.1
2015-Jul-05 14:04N 42°33' W 079°57'714.3
2015-Jul-05 13:34N 42°36' W 079°49'1414.2
2015-Jul-05 12:34N 42°43' W 079°32'155 7.1
2015-Jul-04 14:33N 44°02' W 076°28'1313.2
2015-Jul-04 13:33N 44°12' W 076°16'108 7.7
2015-Jul-03 23:32N 45°14' W 074°11'8 8.3
2015-Jul-03 22:33N 45°14' W 073°59'5 4.3
2015-Jul-03 21:29N 45°18' W 073°56'1 1.1
2015-Jul-03 20:06N 45°20' W 073°55'4 7.1
2015-Jul-03 19:33N 45°22' W 073°50'8 7.7
2015-Jul-03 18:33N 45°25' W 073°40'43 5.3
2015-Jul-03 10:33N 46°02' W 073°10'10 9.5
2015-Jul-03 09:33N 46°07' W 072°58'1111.2
2015-Jul-03 08:33N 46°14' W 072°46'1010.1
2015-Jul-03 07:33N 46°19' W 072°33'1110.6
2015-Jul-03 06:33N 46°26' W 072°21'1110.5
2015-Jul-03 05:33N 46°33' W 072°10'10 9.8
2015-Jul-03 04:30N 46°38' W 071°56'  
2015-Jun-29 22:29N 45°31' W 073°31'5 2.0
2015-Jun-29 20:06N 45°26' W 073°30'4 0.3
2015-Jun-29 04:06N 45°24' W 073°35'0 0.7
2015-Jun-29 03:33N 45°24' W 073°36'8 7.5
2015-Jun-29 02:33N 45°24' W 073°47'7 7.0
2015-Jun-29 01:33N 45°24' W 073°37'3 2.7
2015-Jun-29 00:34N 45°24' W 073°33'47 1.4
2015-Jun-27 15:24N 46°06' W 072°59'910.4
2015-Jun-27 14:33N 46°12' W 072°51'1111.1
2015-Jun-27 13:33N 46°17' W 072°37'9 8.7
2015-Jun-27 12:33N 46°23' W 072°27'1010.1
2015-Jun-27 11:33N 46°28' W 072°15'1010.0
2015-Jun-27 10:33N 46°34' W 072°03'1111.1
2015-Jun-27 09:32N 46°40' W 071°49'  

Dump ship's entire track history